Search METAR Data

METAR Data for ENSO:

ENSO 241520Z 32014KT CAVOK 07/M01 Q1007